Time;durP1;ratioP1;P1;durP2;ratioP2;P2;SDS_P1;SDS_P2;PMS_P1;PMS_P2;Temp;Humidity;BMP_temperature;BMP_pressure;BME280_temperature;BME280_humidity;BME280_pressure;Samples;Min_cycle;Max_cycle;Signal;HPM_P1;HPM_P2
2021/10/01 00:00:23;;;;;;;4.35;1.40;;;12.00;99.90;;;12.88;71.25;101019.53;6165538;23;20054;-86
2021/10/01 00:02:51;;;;;;;4.55;1.13;;;11.90;99.90;;;12.93;71.00;101019.28;6163819;23;20005;-86
2021/10/01 00:05:19;;;;;;;4.03;1.10;;;12.00;99.90;;;12.98;70.68;101021.78;6190851;23;20005;-86
2021/10/01 00:07:45;;;;;;;3.03;1.10;;;12.00;99.90;;;12.92;70.48;101020.44;6164484;23;20005;-87
2021/10/01 00:10:11;;;;;;;4.35;0.90;;;12.00;99.90;;;12.85;71.43;101008.25;6164091;23;20005;-86
2021/10/01 00:12:37;;;;;;;4.85;1.23;;;12.00;99.90;;;12.90;70.56;101010.78;6189142;23;20059;-86
2021/10/01 00:15:07;;;;;;;5.47;1.23;;;11.90;99.90;;;12.83;71.29;101000.22;6164846;23;20064;-87
2021/10/01 00:17:34;;;;;;;3.90;1.02;;;11.80;99.90;;;12.68;71.29;100999.03;6164567;23;20043;-86
2021/10/01 00:20:00;;;;;;;3.80;1.00;;;11.80;99.90;;;12.79;70.81;100999.31;6189853;23;20009;-86
2021/10/01 00:22:26;;;;;;;3.65;1.10;;;11.90;99.90;;;12.74;71.17;100991.19;6164866;23;20135;-86
2021/10/01 00:24:53;;;;;;;6.15;1.20;;;11.90;99.90;;;12.77;71.10;100998.06;6165281;23;20009;-86
2021/10/01 00:27:19;;;;;;;4.00;1.27;;;11.80;99.90;;;12.71;71.21;100989.13;6165495;23;20037;-88
2021/10/01 00:29:46;;;;;;;2.55;0.75;;;11.80;99.90;;;12.69;70.90;100994.25;6165740;23;20355;-89
2021/10/01 00:32:12;;;;;;;3.70;0.80;;;11.80;99.90;;;12.63;71.29;100987.31;6165650;23;20320;-87
2021/10/01 00:34:38;;;;;;;2.80;0.95;;;11.80;99.90;;;12.67;71.63;100979.81;6170333;23;20327;-87
2021/10/01 00:37:04;;;;;;;7.25;1.13;;;11.70;99.90;;;12.66;71.29;100975.38;6163360;23;20009;-86
2021/10/01 00:39:31;;;;;;;2.15;0.70;;;11.70;99.90;;;12.60;71.38;100979.63;6162823;23;20009;-88
2021/10/01 00:41:57;;;;;;;4.88;1.30;;;11.70;99.90;;;12.70;70.81;100976.28;6191405;23;20012;-88
2021/10/01 00:44:23;;;;;;;3.45;1.00;;;11.70;99.90;;;12.55;71.74;100968.72;6165038;23;20097;-87
2021/10/01 00:46:51;;;;;;;5.28;1.40;;;11.60;99.90;;;12.48;71.59;100965.75;6189522;23;20037;-87
2021/10/01 00:49:17;;;;;;;6.38;0.90;;;11.60;99.90;;;12.55;71.64;100961.09;6163578;23;20015;-86
2021/10/01 00:51:45;;;;;;;5.32;1.00;;;11.60;99.90;;;12.56;71.19;100970.31;6164702;23;20335;-86
2021/10/01 00:54:11;;;;;;;10.65;1.42;;;11.60;99.90;;;12.41;72.09;100963.56;6190019;23;20048;-87
2021/10/01 00:56:38;;;;;;;4.18;1.02;;;11.50;99.90;;;12.42;72.46;100964.41;6163010;23;20009;-85
2021/10/01 00:59:04;;;;;;;4.45;1.20;;;11.50;99.90;;;12.31;72.63;100972.53;6162141;23;20363;-87
2021/10/01 01:01:30;;;;;;;5.00;0.98;;;11.40;99.90;;;12.33;72.71;100950.56;6189647;23;20106;-86
2021/10/01 01:04:02;;;;;;;7.68;1.25;;;11.40;99.90;;;12.24;72.99;100960.31;6162782;23;20388;-86
2021/10/01 01:07:03;;;;;;;3.42;1.10;;;11.30;99.90;;;12.24;72.88;100965.91;6162596;23;20009;-86
2021/10/01 01:09:44;;;;;;;4.80;0.77;;;11.30;99.90;;;12.28;72.59;100956.44;6163011;23;20013;-86
2021/10/01 01:12:12;;;;;;;6.95;1.08;;;11.30;99.90;;;12.24;73.18;100955.53;6162524;23;20020;-87
2021/10/01 01:15:00;;;;;;;6.18;1.08;;;11.30;99.90;;;12.20;73.00;100954.63;6162792;23;20301;-88
2021/10/01 01:17:31;;;;;;;2.83;1.00;;;11.30;99.90;;;12.15;73.01;100944.53;6188395;23;20047;-87
2021/10/01 01:20:20;;;;;;;4.65;1.10;;;11.30;99.90;;;12.12;73.33;100939.66;6188980;23;20001;-87
2021/10/01 01:22:59;;;;;;;5.07;1.20;;;11.20;99.90;;;12.24;72.78;100940.72;6189869;23;20008;-86
2021/10/01 01:26:11;;;;;;;2.90;1.40;;;11.20;99.90;;;12.18;72.88;100940.19;6163298;23;20040;-88
2021/10/01 01:29:01;;;;;;;3.38;1.02;;;11.20;99.90;;;12.22;73.32;100934.69;6164764;23;20005;-87
2021/10/01 01:31:54;;;;;;;2.60;0.80;;;11.30;99.90;;;12.27;72.79;100934.38;6190583;23;20005;-86
2021/10/01 01:34:37;;;;;;;2.72;0.85;;;11.30;99.90;;;12.21;72.62;100938.66;6140114;23;20079;-86
2021/10/01 01:37:23;;;;;;;4.50;1.02;;;11.30;99.90;;;12.20;72.86;100929.44;6165324;23;20044;-86
2021/10/01 01:39:53;;;;;;;5.97;1.02;;;11.30;99.90;;;12.28;72.67;100930.44;6165359;23;20009;-87
2021/10/01 01:42:21;;;;;;;4.07;0.80;;;11.30;99.90;;;12.14;73.30;100916.88;6164510;23;20017;-86
2021/10/01 01:44:51;;;;;;;4.70;1.10;;;11.20;99.90;;;12.15;73.04;100922.13;6164526;23;20004;-87
2021/10/01 01:47:17;;;;;;;3.20;1.00;;;11.20;99.90;;;12.06;73.52;100921.50;6191260;23;20315;-87
2021/10/01 01:49:46;;;;;;;3.97;1.02;;;11.20;99.90;;;12.11;73.86;100923.19;6163946;23;20001;-87
2021/10/01 01:52:16;;;;;;;3.65;1.27;;;11.20;99.90;;;12.12;73.54;100914.47;6164844;23;20035;-86
2021/10/01 01:54:43;;;;;;;3.08;1.30;;;11.20;99.90;;;12.14;73.11;100912.09;6163289;23;20031;-87
2021/10/01 01:57:10;;;;;;;3.03;1.05;;;11.20;99.90;;;12.03;74.06;100921.41;6188108;23;20110;-84
2021/10/01 01:59:38;;;;;;;3.92;0.80;;;11.10;99.90;;;12.09;73.70;100908.75;6163542;23;20017;-87
2021/10/01 02:02:05;;;;;;;2.53;0.82;;;11.10;99.90;;;12.03;73.84;100916.63;6175749;23;20017;-87
2021/10/01 02:04:34;;;;;;;4.43;1.05;;;11.10;99.90;;;12.00;73.95;100905.34;6175179;23;20039;-88
2021/10/01 02:07:06;;;;;;;3.33;1.00;;;11.00;99.90;;;12.00;73.84;100911.75;6197430;23;20098;-88
2021/10/01 02:09:34;;;;;;;3.00;0.93;;;11.00;99.90;;;12.04;73.73;100906.25;6169729;23;20378;-88
2021/10/01 02:12:03;;;;;;;2.38;0.90;;;11.00;99.90;;;11.99;73.82;100903.69;6151087;23;20018;-88
2021/10/01 02:14:38;;;;;;;4.85;1.20;;;11.00;99.90;;;11.93;74.27;100893.97;6124857;23;20006;-87
2021/10/01 02:17:06;;;;;;;2.92;0.82;;;11.00;99.90;;;11.94;74.53;100895.59;6126145;23;20336;-86
2021/10/01 02:19:37;;;;;;;6.03;1.08;;;11.00;99.90;;;11.97;74.08;100894.88;6127100;23;20523;-84
2021/10/01 02:22:06;;;;;;;5.15;1.02;;;11.00;99.90;;;11.85;75.22;100886.53;6121711;23;20348;-84
2021/10/01 02:24:33;;;;;;;4.75;0.77;;;10.90;99.90;;;11.87;74.82;100887.81;6121516;23;20010;-86
2021/10/01 02:27:38;;;;;;;4.75;0.88;;;10.90;99.90;;;11.88;74.88;100885.84;6098813;23;20094;-85
2021/10/01 02:30:21;;;;;;;4.10;1.30;;;10.90;99.90;;;11.92;74.58;100875.53;6121274;23;20006;-86
2021/10/01 02:33:12;;;;;;;5.25;0.82;;;10.90;99.90;;;11.94;74.07;100878.78;6121483;23;20010;-85
2021/10/01 02:35:38;;;;;;;1.80;0.70;;;10.90;99.90;;;11.90;74.36;100866.69;6121671;23;20381;-86
2021/10/01 02:38:04;;;;;;;4.35;1.13;;;10.90;99.90;;;11.83;74.29;100869.31;6121945;23;20085;-86
2021/10/01 02:40:31;;;;;;;3.03;1.00;;;10.90;99.90;;;11.90;74.75;100873.09;6097147;23;20344;-86
2021/10/01 02:42:57;;;;;;;3.72;1.20;;;10.90;99.90;;;11.86;74.49;100863.81;6096737;23;20018;-86
2021/10/01 02:45:23;;;;;;;6.28;1.10;;;10.90;99.90;;;11.94;74.32;100860.03;6098344;23;20500;-86
2021/10/01 02:47:50;;;;;;;3.40;1.10;;;10.90;99.90;;;11.84;74.59;100854.16;6121298;23;20010;-85
2021/10/01 02:50:21;;;;;;;2.30;0.70;;;10.90;99.90;;;11.90;74.26;100855.50;6121570;23;20010;-88
2021/10/01 02:53:29;;;;;;;3.17;0.98;;;10.90;99.90;;;11.85;74.64;100848.16;6095626;23;20503;-89
2021/10/01 02:56:20;;;;;;;4.25;1.10;;;10.90;99.90;;;11.92;74.21;100841.94;6120531;23;20014;-88
2021/10/01 02:58:56;;;;;;;1.88;0.82;;;10.90;99.90;;;11.94;74.41;100854.44;6121591;23;20021;-86
2021/10/01 03:01:28;;;;;;;4.38;1.00;;;10.90;99.90;;;11.81;74.97;100841.69;6121492;23;20017;-86
2021/10/01 03:04:03;;;;;;;4.82;1.38;;;10.90;99.90;;;11.79;74.52;100849.63;6121393;23;20030;-88
2021/10/01 03:06:34;;;;;;;4.67;0.70;;;10.80;99.90;;;11.78;74.67;100844.41;6122204;23;20006;-88
2021/10/01 03:09:06;;;;;;;4.03;1.17;;;10.80;99.90;;;11.78;75.53;100848.03;6121454;23;20006;-85
2021/10/01 03:11:35;;;;;;;3.65;0.90;;;10.70;99.90;;;11.64;75.13;100845.63;6097104;23;20337;-88
2021/10/01 03:14:04;;;;;;;2.97;0.85;;;10.80;99.90;;;11.74;74.86;100849.09;6096788;23;20018;-86
2021/10/01 03:16:36;;;;;;;3.28;1.38;;;10.80;99.90;;;11.73;75.37;100845.47;6121358;23;20017;-87
2021/10/01 03:19:04;;;;;;;2.78;0.90;;;10.80;99.90;;;11.83;74.32;100844.13;6121410;23;20033;-88
2021/10/01 03:21:33;;;;;;;4.55;0.90;;;10.80;99.90;;;11.83;74.85;100838.53;6120691;23;20014;-84
2021/10/01 03:24:03;;;;;;;5.53;1.02;;;10.90;99.90;;;11.78;74.66;100828.44;6120564;23;20010;-90
2021/10/01 03:26:30;;;;;;;4.00;0.80;;;10.80;99.90;;;11.74;74.67;100835.09;6120836;23;20034;-89
2021/10/01 03:28:56;;;;;;;2.67;0.95;;;10.90;99.90;;;11.73;74.67;100830.66;6120789;23;20445;-86
2021/10/01 03:31:27;;;;;;;6.80;1.52;;;10.80;99.90;;;11.75;74.42;100834.72;6120348;23;20025;-89
2021/10/01 03:33:55;;;;;;;4.65;1.33;;;10.80;99.90;;;11.74;74.81;100821.94;6121021;23;20017;-89
2021/10/01 03:36:23;;;;;;;1.92;0.80;;;10.80;99.90;;;11.73;75.01;100822.28;6120702;23;20016;-87
2021/10/01 03:38:54;;;;;;;2.20;0.75;;;10.80;99.90;;;11.65;75.09;100826.88;6121113;23;20014;-90
2021/10/01 03:41:20;;;;;;;4.45;1.13;;;10.80;99.90;;;11.61;75.52;100821.19;6096685;23;20093;-90
2021/10/01 03:43:46;;;;;;;6.10;1.38;;;10.70;99.90;;;11.71;74.91;100824.63;6124961;23;20019;-91
2021/10/01 03:46:12;;;;;;;2.15;0.80;;;10.70;99.90;;;11.61;75.08;100815.59;6108111;23;20034;-89
2021/10/01 03:48:47;;;;;;;3.35;1.10;;;10.70;99.90;;;11.61;75.02;100809.16;6100654;23;20007;-89
2021/10/01 03:51:13;;;;;;;6.00;1.55;;;10.60;99.90;;;11.68;74.91;100814.94;6123117;23;20006;-91
2021/10/01 03:53:40;;;;;;;4.28;0.90;;;10.70;99.90;;;11.62;75.37;100817.19;6122684;23;20017;-89
2021/10/01 03:56:13;;;;;;;2.47;0.82;;;10.70;99.90;;;11.64;75.26;100822.44;6121904;23;20112;-88
2021/10/01 03:58:39;;;;;;;6.97;1.30;;;10.60;99.90;;;11.53;75.48;100815.75;6122624;23;20014;-87
2021/10/01 04:01:05;;;;;;;5.47;1.17;;;10.60;99.90;;;11.51;75.90;100812.50;6122270;23;20090;-88
2021/10/01 04:03:30;;;;;;;4.53;1.10;;;10.60;99.90;;;11.41;75.98;100808.25;6096373;23;20444;-91
2021/10/01 04:05:56;;;;;;;4.60;1.00;;;10.50;99.90;;;11.44;76.36;100798.34;6096433;23;20017;-86
2021/10/01 04:08:23;;;;;;;9.15;1.67;;;10.50;99.90;;;11.47;76.24;100797.59;6120835;23;20006;-89
2021/10/01 04:10:49;;;;;;;4.78;1.00;;;10.60;99.90;;;11.52;75.77;100802.94;6123339;23;20340;-91
2021/10/01 04:13:15;;;;;;;5.00;1.02;;;10.60;99.90;;;11.51;75.56;100792.94;6123989;23;20011;-88
2021/10/01 04:15:41;;;;;;;6.57;1.08;;;10.70;99.90;;;11.61;75.25;100803.56;6120102;23;20093;-88
2021/10/01 04:18:08;;;;;;;4.22;0.80;;;10.60;99.90;;;11.58;75.27;100798.72;6120345;23;20021;-89
2021/10/01 04:20:36;;;;;;;3.40;0.85;;;10.60;99.90;;;11.53;75.27;100787.78;6120333;23;20013;-87
2021/10/01 04:23:03;;;;;;;4.45;1.42;;;10.60;99.90;;;11.53;75.42;100790.56;6119990;23;20084;-88
2021/10/01 04:25:30;;;;;;;5.80;0.90;;;10.70;99.90;;;11.59;75.16;100792.72;6119753;23;20033;-85
2021/10/01 04:27:57;;;;;;;3.97;0.98;;;10.60;99.90;;;11.58;75.08;100791.13;6119956;23;20137;-86
2021/10/01 04:30:24;;;;;;;4.88;1.00;;;10.70;99.90;;;11.61;74.84;100787.59;6119828;23;20467;-87
2021/10/01 04:33:00;;;;;;;2.40;1.00;;;10.80;99.90;;;11.61;74.85;100786.78;6119988;23;20010;-86
2021/10/01 04:35:27;;;;;;;3.80;1.10;;;10.80;99.90;;;11.69;74.53;100782.97;6120129;23;20015;-88
2021/10/01 04:37:53;;;;;;;6.07;1.10;;;10.80;99.90;;;11.67;74.70;100778.94;6119994;23;20362;-85
2021/10/01 04:40:19;;;;;;;4.80;0.93;;;10.80;99.90;;;11.71;74.15;100786.28;6119881;23;20017;-86
2021/10/01 04:42:45;;;;;;;3.95;0.95;;;10.90;99.90;;;11.78;73.76;100778.06;6119191;23;20054;-89
2021/10/01 04:45:11;;;;;;;4.10;0.93;;;10.80;99.90;;;11.76;73.71;100782.38;6120018;23;20010;-90
2021/10/01 04:47:38;;;;;;;7.57;1.30;;;10.90;99.90;;;11.73;73.64;100777.50;6121598;23;20432;-91
2021/10/01 04:50:07;;;;;;;3.28;0.90;;;10.90;99.90;;;11.85;73.50;100771.78;6120661;23;20006;-88
2021/10/01 04:52:33;;;;;;;2.20;0.90;;;10.90;99.90;;;11.77;73.66;100770.84;6096331;23;20037;-90
2021/10/01 04:54:59;;;;;;;3.17;1.05;;;10.90;99.90;;;11.75;73.66;100775.97;6120023;23;20007;-89
2021/10/01 04:57:25;;;;;;;2.92;0.85;;;10.90;99.90;;;11.90;73.32;100766.75;6096641;23;20006;-88
2021/10/01 04:59:51;;;;;;;8.38;1.10;;;11.00;99.90;;;11.90;72.61;100761.16;6121481;23;20022;-89
2021/10/01 05:02:17;;;;;;;4.97;0.90;;;11.00;99.90;;;11.84;72.96;100761.78;6097135;23;20079;-88
2021/10/01 05:04:42;;;;;;;4.72;0.80;;;11.00;99.90;;;11.82;72.92;100762.16;6120747;23;20325;-85
2021/10/01 05:07:08;;;;;;;3.78;1.27;;;11.00;99.90;;;11.86;72.86;100765.03;6096192;23;20014;-86
2021/10/01 05:09:34;;;;;;;3.13;0.90;;;11.00;99.90;;;11.82;72.99;100762.16;6096119;23;20006;-87
2021/10/01 05:12:00;;;;;;;9.73;1.48;;;11.00;99.90;;;11.83;72.80;100757.38;6120526;23;20026;-87
2021/10/01 05:14:26;;;;;;;5.00;0.93;;;11.00;99.90;;;11.80;73.11;100760.88;6121351;23;20404;-85
2021/10/01 05:16:52;;;;;;;7.63;1.23;;;11.00;99.90;;;11.87;72.91;100761.06;6121120;23;20006;-89
2021/10/01 05:19:17;;;;;;;3.70;1.20;;;11.00;99.90;;;11.91;72.33;100759.16;6096170;23;20006;-88
2021/10/01 05:21:43;;;;;;;8.27;1.45;;;11.00;99.90;;;11.87;72.73;100761.88;6095499;23;20010;-87
2021/10/01 05:24:12;;;;;;;3.17;1.05;;;11.00;99.90;;;11.93;72.32;100759.59;6119606;23;20010;-90
2021/10/01 05:26:38;;;;;;;3.88;0.98;;;11.00;99.90;;;11.88;72.53;100759.91;6120692;23;20345;-87
2021/10/01 05:29:04;;;;;;;4.90;0.80;;;11.00;99.90;;;11.89;72.65;100753.09;6120207;23;20021;-87
2021/10/01 05:31:30;;;;;;;3.17;0.85;;;11.00;99.90;;;11.87;72.24;100763.88;6119406;23;20007;-87
2021/10/01 05:33:56;;;;;;;4.43;1.20;;;11.00;99.90;;;11.87;72.92;100755.47;6119265;23;20372;-87
2021/10/01 05:36:22;;;;;;;3.38;1.00;;;11.10;99.90;;;11.84;73.11;100756.19;6118959;23;20322;-89
2021/10/01 05:38:48;;;;;;;2.70;1.00;;;11.00;99.90;;;11.91;72.77;100753.56;6119724;23;20011;-90
2021/10/01 05:41:19;;;;;;;4.28;0.90;;;11.00;99.90;;;11.91;72.56;100756.38;6096996;23;20006;-88
2021/10/01 05:43:45;;;;;;;3.10;1.05;;;11.00;99.90;;;11.90;72.94;100755.56;6120071;23;20014;-88
2021/10/01 05:46:12;;;;;;;4.63;1.20;;;11.00;99.90;;;11.96;72.37;100744.88;6119425;23;20038;-86
2021/10/01 05:48:41;;;;;;;5.72;1.13;;;11.10;99.90;;;12.00;71.83;100759.78;6096174;23;20002;-88
2021/10/01 05:51:10;;;;;;;4.60;1.10;;;11.10;99.90;;;12.10;71.62;100748.00;6119046;23;20018;-89
2021/10/01 05:53:47;;;;;;;6.88;1.30;;;11.10;99.90;;;12.09;71.92;100750.00;6119572;23;20089;-87
2021/10/01 05:56:16;;;;;;;5.20;0.82;;;11.20;99.90;;;12.12;71.54;100746.47;6095470;23;20021;-84
2021/10/01 05:58:43;;;;;;;4.05;1.08;;;11.20;99.90;;;12.19;71.54;100740.22;6120662;23;20011;-87
2021/10/01 06:01:10;;;;;;;5.28;1.20;;;11.40;99.90;;;12.20;71.57;100736.22;6121131;23;20392;-88
2021/10/01 06:03:36;;;;;;;4.55;1.15;;;11.40;99.90;;;12.25;71.00;100735.13;6121077;23;20014;-90
2021/10/01 06:06:03;;;;;;;2.58;1.10;;;11.40;99.90;;;12.33;70.74;100743.28;6102573;23;20062;-91
2021/10/01 06:08:28;;;;;;;2.85;1.00;;;11.40;99.90;;;12.24;71.09;100731.50;6125554;23;20038;-88
2021/10/01 06:10:54;;;;;;;7.22;1.33;;;11.40;99.90;;;12.25;70.92;100740.72;6122351;23;20471;-84
2021/10/01 06:13:20;;;;;;;2.97;1.10;;;11.40;99.90;;;12.26;70.95;100734.78;6120071;23;20330;-87
2021/10/01 06:15:46;;;;;;;3.40;1.00;;;11.40;99.90;;;12.30;70.56;100727.22;6121344;23;20014;-88
2021/10/01 06:18:12;;;;;;;5.40;1.25;;;11.50;99.90;;;12.33;70.68;100725.72;6096416;23;20149;-88
2021/10/01 06:20:38;;;;;;;4.65;1.33;;;11.50;99.90;;;12.48;70.17;100727.63;6121400;23;20428;-88
2021/10/01 06:23:04;;;;;;;3.63;1.20;;;11.60;99.90;;;12.51;69.50;100738.09;6121427;23;20206;-89
2021/10/01 06:25:30;;;;;;;3.38;1.27;;;11.70;99.90;;;12.62;68.76;100727.88;6096308;23;20010;-88
2021/10/01 06:27:56;;;;;;;4.07;0.90;;;11.80;99.90;;;12.82;68.96;100728.66;6120484;23;20069;-87
2021/10/01 06:30:22;;;;;;;4.22;1.20;;;11.80;99.90;;;12.86;68.11;100718.34;6121062;23;20085;-87
2021/10/01 06:32:48;;;;;;;6.20;1.08;;;12.00;99.90;;;13.01;67.41;100735.06;6121657;23;20010;-86
2021/10/01 06:35:14;;;;;;;4.47;1.30;;;12.10;99.90;;;13.17;67.01;100724.56;6122019;23;20014;-90
2021/10/01 06:37:40;;;;;;;3.47;1.02;;;12.20;99.90;;;13.33;66.41;100737.66;6121983;23;20329;-87
2021/10/01 06:40:08;;;;;;;7.20;1.38;;;12.30;99.90;;;13.36;66.28;100725.66;6122639;23;20087;-87
2021/10/01 06:42:39;;;;;;;5.88;1.08;;;12.40;99.90;;;13.59;65.35;100718.84;6132627;23;20010;-88
2021/10/01 06:45:08;;;;;;;6.28;1.38;;;12.60;99.90;;;13.44;65.79;100705.78;6141295;23;20003;-86
2021/10/01 06:47:45;;;;;;;3.17;1.13;;;12.60;99.90;;;13.65;65.06;100717.34;6140349;23;20070;-87
2021/10/01 06:50:48;;;;;;;5.65;1.23;;;12.70;99.90;;;13.75;64.03;100710.28;6142522;23;20007;-85
2021/10/01 14:13:57;;;;;;;4.40;0.70;;;19.10;75.90;;;20.05;43.99;100381.84;6170033;23;20025;-88
2021/10/01 14:16:23;;;;;;;2.35;0.73;;;19.10;76.50;;;19.85;45.20;100381.75;6187220;23;20013;-88
2021/10/01 14:18:49;;;;;;;3.63;0.80;;;19.00;77.90;;;19.70;45.24;100373.88;6186637;23;20005;-83
2021/10/01 14:21:15;;;;;;;2.13;0.65;;;18.90;77.80;;;19.87;45.55;100382.09;6188335;23;20005;-86
2021/10/01 14:23:42;;;;;;;1.83;0.80;;;18.80;80.00;;;19.65;45.65;100380.03;6187495;23;20016;-87
2021/10/01 14:26:08;;;;;;;3.92;1.00;;;18.70;79.10;;;19.56;46.55;100382.56;6189935;23;20006;-86
2021/10/01 14:28:34;;;;;;;1.38;0.75;;;18.60;80.00;;;19.38;45.48;100375.09;6189484;23;20140;-89
2021/10/01 14:31:00;;;;;;;1.27;0.60;;;18.50;78.00;;;19.56;46.16;100360.72;6188859;23;20012;-88
2021/10/01 14:33:26;;;;;;;2.22;0.80;;;18.50;79.80;;;19.66;45.46;100373.13;6189269;23;20133;-90
2021/10/01 14:35:53;;;;;;;2.28;0.90;;;18.50;79.10;;;19.45;46.44;100375.03;6191578;23;20072;-91
2021/10/01 14:38:22;;;;;;;3.10;0.65;;;18.40;79.90;;;19.30;45.95;100376.41;6191603;23;20033;-87
2021/10/01 14:40:47;;;;;;;1.23;0.70;;;18.40;79.00;;;19.27;46.27;100368.75;6189502;23;20013;-85
2021/10/01 14:43:13;;;;;;;4.07;1.10;;;18.30;79.40;;;19.23;47.03;100370.03;6213916;23;20635;-89
2021/10/01 14:45:39;;;;;;;2.90;0.70;;;18.30;80.80;;;19.24;47.25;100372.44;6188346;23;20363;-88
2021/10/01 14:48:06;;;;;;;2.35;0.77;;;18.30;81.30;;;19.39;46.30;100373.84;6190362;23;20005;-86
2021/10/01 14:50:32;;;;;;;4.68;0.98;;;18.30;80.70;;;19.19;46.85;100364.44;6217024;23;20009;-87
2021/10/01 14:52:59;;;;;;;4.47;0.70;;;18.30;80.60;;;19.28;47.08;100363.91;6191019;23;20079;-86
2021/10/01 14:55:25;;;;;;;2.55;0.82;;;18.20;81.10;;;19.34;46.63;100365.03;6193577;23;20060;-88
2021/10/01 14:57:51;;;;;;;7.13;1.38;;;18.20;81.00;;;19.25;47.12;100364.75;6191564;23;20069;-90
2021/10/01 15:00:18;;;;;;;3.88;0.95;;;18.20;81.30;;;19.12;46.99;100356.03;6200931;23;20039;-87
2021/10/01 15:02:45;;;;;;;4.35;0.88;;;18.20;80.90;;;19.20;47.10;100356.75;6204204;23;20009;-89
2021/10/01 15:05:13;;;;;;;3.67;1.10;;;18.20;81.30;;;19.19;47.17;100355.94;6188384;23;20365;-88
2021/10/01 15:07:39;;;;;;;5.97;1.20;;;18.10;81.60;;;19.20;46.66;100349.03;6186604;23;20012;-90
2021/10/01 15:10:06;;;;;;;2.95;0.80;;;18.10;80.70;;;19.09;47.27;100347.56;6212562;23;20040;-87
2021/10/01 15:12:36;;;;;;;2.83;0.80;;;18.10;81.50;;;18.92;47.51;100344.53;6210933;23;20012;-87
2021/10/01 15:15:08;;;;;;;1.80;0.70;;;18.00;81.50;;;18.83;47.20;100338.56;6187592;23;20029;-88
2021/10/01 15:17:37;;;;;;;2.63;0.88;;;18.00;81.30;;;18.92;47.16;100335.22;6187456;23;20001;-87
2021/10/01 15:20:07;;;;;;;3.22;0.90;;;17.90;81.30;;;18.98;47.60;100339.19;6189526;23;20008;-89
2021/10/01 15:22:33;;;;;;;5.82;1.00;;;17.80;82.30;;;18.78;48.00;100335.41;6187813;23;20005;-89
2021/10/01 15:25:00;;;;;;;4.18;1.10;;;17.80;82.10;;;18.76;47.87;100324.50;6189350;23;20431;-89
2021/10/01 15:27:25;;;;;;;3.45;1.10;;;17.80;82.30;;;18.70;48.10;100320.53;6195057;23;20005;-88
2021/10/01 15:30:03;;;;;;;2.70;0.77;;;17.70;82.70;;;18.83;47.96;100323.63;6209236;23;20032;-85
2021/10/01 15:32:31;;;;;;;2.28;0.95;;;17.70;82.80;;;18.87;47.42;100318.72;6193700;23;20060;-87
2021/10/01 15:34:57;;;;;;;3.47;1.30;;;17.70;82.60;;;18.70;47.89;100306.38;6190942;23;20012;-89
2021/10/01 15:37:23;;;;;;;4.40;0.93;;;17.70;82.40;;;18.69;47.63;100315.28;6191446;23;20105;-91
2021/10/01 15:39:49;;;;;;;4.90;0.73;;;17.70;82.20;;;18.70;48.02;100314.88;6189943;23;20024;-88
2021/10/01 15:42:16;;;;;;;3.05;0.80;;;17.60;82.40;;;18.67;48.03;100312.09;6190401;23;20001;-88
2021/10/01 15:44:41;;;;;;;4.47;0.70;;;17.70;83.00;;;18.76;47.51;100309.53;6186930;23;20065;-88
2021/10/01 15:47:08;;;;;;;5.60;0.93;;;17.60;82.50;;;18.71;48.18;100321.34;6187285;23;20024;-89
2021/10/01 15:49:35;;;;;;;3.22;0.73;;;17.60;83.50;;;18.59;48.58;100316.22;6186636;23;20016;-88
2021/10/01 15:52:03;;;;;;;3.05;0.70;;;17.50;83.70;;;18.61;48.27;100316.59;6187737;23;20053;-87
2021/10/01 15:54:29;;;;;;;5.35;0.70;;;17.50;83.60;;;18.69;48.63;100318.91;6187477;23;20009;-89
2021/10/01 15:56:55;;;;;;;4.95;1.02;;;17.50;84.30;;;18.59;49.07;100319.06;6190920;23;20036;-88
2021/10/01 15:59:24;;;;;;;3.97;0.80;;;17.40;84.70;;;18.48;49.29;100327.63;6190239;23;20024;-87
2021/10/01 16:01:50;;;;;;;4.32;0.75;;;17.40;84.90;;;18.47;48.94;100316.69;6192366;23;20040;-86
2021/10/01 16:04:16;;;;;;;5.63;1.00;;;17.40;84.90;;;18.43;49.55;100320.38;6190913;23;20016;-91
2021/10/01 16:06:42;;;;;;;2.58;0.60;;;17.30;85.70;;;18.35;49.82;100327.34;6191052;23;20013;-90
2021/10/01 16:09:08;;;;;;;2.60;0.90;;;17.30;86.10;;;18.26;49.43;100317.72;6190005;23;20107;-87
2021/10/01 16:11:34;;;;;;;3.70;0.90;;;17.20;85.30;;;18.31;49.76;100322.94;6189225;23;20005;-86
2021/10/01 16:14:00;;;;;;;2.38;0.82;;;17.20;86.30;;;18.18;49.93;100319.81;6214600;23;20019;-89
2021/10/01 16:16:26;;;;;;;3.70;1.00;;;17.10;85.90;;;18.21;50.03;100318.97;6189617;23;20009;-87
2021/10/01 16:18:52;;;;;;;1.67;0.82;;;17.10;86.50;;;18.12;49.85;100310.19;6189491;23;20036;-88
2021/10/01 16:21:18;;;;;;;1.83;0.65;;;17.10;86.10;;;18.20;49.74;100320.22;6193660;23;20016;-90
2021/10/01 16:23:44;;;;;;;5.13;0.90;;;17.10;86.30;;;18.20;50.17;100316.59;6188927;23;20116;-89
2021/10/01 16:26:10;;;;;;;2.30;0.70;;;17.00;87.00;;;18.09;50.14;100316.66;6189744;23;20032;-89
2021/10/01 16:28:36;;;;;;;1.63;0.60;;;17.00;86.50;;;17.99;50.79;100314.75;6190751;23;20012;-89
2021/10/01 16:31:02;;;;;;;2.55;0.88;;;17.00;87.60;;;17.98;50.80;100315.16;6190117;23;19997;-88
2021/10/01 16:33:28;;;;;;;3.05;0.93;;;16.90;87.60;;;18.03;50.57;100315.50;6195067;23;20013;-86
2021/10/01 16:35:55;;;;;;;1.83;0.95;;;16.90;88.00;;;18.01;50.50;100325.63;6197663;23;20013;-88
2021/10/01 16:38:22;;;;;;;4.72;0.90;;;16.90;87.40;;;17.90;50.58;100318.03;6199208;23;20005;-87
2021/10/01 16:40:48;;;;;;;2.20;0.85;;;16.80;87.50;;;17.91;51.25;100316.03;6215020;23;20013;-90
2021/10/01 16:43:18;;;;;;;5.57;0.95;;;16.80;88.40;;;17.98;50.97;100315.94;6189613;23;20008;-90
2021/10/01 16:45:48;;;;;;;4.07;1.10;;;16.80;88.80;;;18.02;51.40;100319.56;6188986;23;20461;-86
2021/10/01 16:48:14;;;;;;;3.05;1.08;;;16.70;89.40;;;17.93;51.23;100319.22;6190557;23;20001;-86
2021/10/01 16:50:40;;;;;;;5.28;1.00;;;16.70;89.50;;;17.82;51.92;100318.50;6187660;23;20058;-86
2021/10/01 16:53:07;;;;;;;2.38;0.93;;;16.60;90.10;;;17.81;51.93;100316.91;6188613;23;20011;-85
2021/10/01 16:55:34;;;;;;;3.13;1.15;;;16.60;90.30;;;17.77;52.20;100302.00;6212157;23;20229;-86
2021/10/01 16:58:03;;;;;;;4.47;1.10;;;16.60;90.50;;;17.73;52.27;100304.84;6188271;23;20036;-87
2021/10/01 17:00:35;;;;;;;3.60;0.93;;;16.50;90.60;;;17.63;52.63;100293.63;6189890;23;20035;-89
2021/10/01 17:03:03;;;;;;;2.90;1.20;;;16.50;90.80;;;17.59;52.99;100299.31;6186765;23;20001;-88
2021/10/01 17:05:32;;;;;;;3.35;1.42;;;16.40;91.10;;;17.52;53.27;100295.69;6186442;23;20009;-90
2021/10/01 17:08:00;;;;;;;3.03;1.30;;;16.40;91.10;;;17.56;53.01;100300.16;6187202;23;20013;-86
2021/10/01 17:10:27;;;;;;;2.95;0.93;;;16.40;91.30;;;17.57;53.46;100298.91;6186838;23;20005;-88
2021/10/01 17:12:54;;;;;;;1.63;0.90;;;16.40;91.60;;;17.57;53.61;100295.28;6187632;23;20013;-87
2021/10/01 17:15:21;;;;;;;2.47;1.20;;;16.30;91.80;;;17.46;53.67;100305.84;6188176;23;20067;-88
2021/10/01 17:17:49;;;;;;;2.35;1.10;;;16.30;91.90;;;17.47;54.25;100301.78;6189811;23;20031;-86
2021/10/01 17:20:20;;;;;;;3.58;1.00;;;16.30;92.20;;;17.46;53.62;100312.28;6190399;23;20084;-87
2021/10/01 17:22:46;;;;;;;2.35;0.98;;;16.30;91.80;;;17.48;53.65;100309.03;6214239;23;20187;-86
2021/10/01 17:25:14;;;;;;;3.22;1.17;;;16.30;92.00;;;17.39;53.66;100303.84;6191429;23;20017;-88
2021/10/01 17:27:39;;;;;;;1.65;0.70;;;16.30;92.00;;;17.32;52.90;100313.16;6189488;23;20005;-87
2021/10/01 17:30:08;;;;;;;4.70;0.95;;;16.30;91.40;;;17.35;52.88;100308.72;6188834;23;20001;-88
2021/10/01 17:32:37;;;;;;;2.35;1.08;;;16.30;91.30;;;17.36;52.90;100311.13;6190702;23;20154;-86
2021/10/01 17:35:03;;;;;;;2.13;0.93;;;16.30;91.50;;;17.45;52.21;100318.31;6212232;23;20094;-85
2021/10/01 17:37:29;;;;;;;1.92;1.00;;;16.30;91.00;;;17.36;52.59;100310.31;6190167;23;20032;-86
2021/10/01 17:39:55;;;;;;;5.95;1.20;;;16.30;91.10;;;17.40;52.17;100320.38;6198074;23;20379;-88